Republic Airport
KFRG : now visible

Airfield :











YOU CAN JOIN US ON...

 
LOGIN :

Register | Disclaimer

   EN    FR    IT 

 









Legend :    VFR   Marginal VFR   IFR   Intensive IFR   Very Intensive IFR
Visi :
Ceiling :
>= 8 km
>= 3000ft
5 to 8 km
1000 to 3000 ft
1500m to 5 km
500 to 1000 ft
800 to 1500m
200 to 500 ft
< 800m
< 200 ft
Symbols :   Thunderstorms  Fog  Heavy snow  Heavy precipitations  Wind > 20 kt






- Airport Elevation : 82 ft


KFRG - Republic

CURRENT METAR :
  • 230753Z AUTO 00000KT 10SM -RA BKN007 OVC013 22/22 A2996 RMK AO2 CIG 006V009 SLP144 P0002 T02220217

EXPIRED METARs :
  • 230709Z AUTO 00000KT 4SM -RA BR BKN007 OVC011 22/21 A2997 RMK AO2 P0002 T02170211
  • 230653Z AUTO 36003KT 2 1/2SM +RA BR BKN009 BKN016 OVC022 22/21 A2997 RMK AO2 RAB0558 SLP148 P0018 T02170211
  • 230649Z AUTO 00000KT 2 1/2SM RA BR BKN009 OVC020 22/22 A2997 RMK AO2 RAB0558 P0016
  • 230623Z AUTO 10003KT 2 1/2SM -RA BR FEW014 BKN026 OVC033 22/21 A2998 RMK AO2 RAB0558 P0004 T02170211
  • 230553Z AUTO 12008KT 9SM SCT006 SCT012 OVC031 22/22 A2998 RMK AO2 RAB29E44 SLP150 P0000 60015 T02220217 10250 20222 56014
  • 230543Z AUTO 13007KT 10SM -RA SCT006 BKN013 OVC080 23/22 A2997 RMK AO2 RAB29 P0000 T02280217
  • 230453Z AUTO 11004KT 10SM BKN008 OVC014 23/22 A2998 RMK AO2 CIG 007V011 SLP152 T02280217 402780222
  • 230435Z AUTO 11006KT 10SM BKN011 OVC060 23/22 A2998 RMK AO2 T02280217
  • 230402Z AUTO 14005KT 10SM SCT013 OVC065 23/22 A2999 RMK AO2 T02280217
  • 230353Z AUTO 12006KT 10SM BKN013 OVC065 23/22 A2999 RMK AO2 RAE03 SLP155 P0000 T02330217
  • 230346Z AUTO 13006KT 10SM BKN013 BKN045 OVC070 23/22 A2999 RMK AO2 RAE03 P0000 T02330222
  • 230253Z AUTO 12005KT 10SM -RA SCT016 BKN043 OVC080 23/22 A3002 RMK AO2 RAB05E40B47 SLP163 P0015 60015 T02330217 58001

TAF N/A
KZNY FIR / North America



MET'MAP, your aeronautical weather chart ! - Copyright ORBIFLY December 2007 - Disclaimer

ORBIFLY MET'MAP TEAM :

Programming & Development : Alexandra Zaïnal
Original concept : Baudouin d'Aumeries
Technical & hardware support : Manuel Goepfert
Assistance : Marc-Olivier Méhu




SOURCES & CREDITS :

   NOAA       Earth
Advisory